createdAt,value
2018-09-28T00:00:54.022Z,58.40
2018-09-28T00:03:24.888Z,58.50
2018-09-28T00:05:55.695Z,58.60
2018-09-28T00:08:32.225Z,58.50
2018-09-28T00:11:03.452Z,58.50
2018-09-28T00:13:34.232Z,58.50
2018-09-28T00:16:04.699Z,58.40
2018-09-28T00:18:35.118Z,58.40
2018-09-28T00:21:05.626Z,58.30
2018-09-28T00:23:36.142Z,58.30
2018-09-28T00:26:06.963Z,58.10
2018-09-28T00:28:37.357Z,58.00
2018-09-28T00:31:07.953Z,58.10
2018-09-28T00:33:38.470Z,58.10
2018-09-28T00:36:10.200Z,57.70
2018-09-28T00:38:43.079Z,57.40
2018-09-28T00:41:14.063Z,57.30
2018-09-28T00:43:45.436Z,57.40
2018-09-28T00:46:18.427Z,57.60
2018-09-28T00:48:49.556Z,57.80
2018-09-28T00:51:20.515Z,57.80
2018-09-28T00:53:51.723Z,58.00
2018-09-28T00:56:22.118Z,58.10
2018-09-28T00:58:52.694Z,58.10
2018-09-28T01:01:23.152Z,58.10
2018-09-28T01:03:53.638Z,57.90
2018-09-28T01:06:23.958Z,57.90
2018-09-28T01:08:56.406Z,58.30
2018-09-28T01:11:26.987Z,58.30
2018-09-28T01:13:57.510Z,58.20
2018-09-28T01:16:28.040Z,58.10
2018-09-28T01:18:58.414Z,58.30
2018-09-28T01:21:35.555Z,58.40
2018-09-28T01:24:05.957Z,58.40
2018-09-28T01:26:36.378Z,58.70
2018-09-28T01:29:06.842Z,58.70
2018-09-28T01:31:37.366Z,58.80
2018-09-28T01:34:07.882Z,58.70
2018-09-28T01:36:38.566Z,58.60
2018-09-28T01:39:09.914Z,58.60
2018-09-28T01:41:42.052Z,58.50
2018-09-28T01:44:12.329Z,58.60
2018-09-28T01:46:42.857Z,58.80
2018-09-28T01:49:13.292Z,58.90
2018-09-28T01:51:43.663Z,58.90
2018-09-28T01:54:14.233Z,59.00
2018-09-28T01:56:44.705Z,59.20
2018-09-28T01:59:15.193Z,59.10
2018-09-28T02:01:46.362Z,59.10
2018-09-28T02:04:17.523Z,59.20
2018-09-28T02:06:50.572Z,59.50
2018-09-28T02:09:21.418Z,59.80
2018-09-28T02:11:53.590Z,60.00
2018-09-28T02:14:24.031Z,60.00
2018-09-28T02:16:54.386Z,59.80
2018-09-28T02:19:28.528Z,59.70
2018-09-28T02:22:00.053Z,59.70
2018-09-28T02:24:32.850Z,59.40
2018-09-28T02:27:05.298Z,59.40
2018-09-28T02:29:35.610Z,59.30
2018-09-28T02:32:07.033Z,59.30
2018-09-28T02:34:37.320Z,59.30
2018-09-28T02:37:08.257Z,59.30
2018-09-28T02:39:38.563Z,59.30
2018-09-28T02:42:08.886Z,59.30
2018-09-28T02:44:39.174Z,59.30
2018-09-28T02:47:09.499Z,59.30
2018-09-28T02:49:39.799Z,59.20
2018-09-28T02:52:10.102Z,59.40
2018-09-28T02:54:40.384Z,59.40
2018-09-28T02:57:10.807Z,59.50
2018-09-28T02:59:41.097Z,59.50
2018-09-28T03:02:11.438Z,59.30
2018-09-28T03:04:41.761Z,59.30
2018-09-28T03:07:12.176Z,59.30
2018-09-28T03:09:42.477Z,59.50
2018-09-28T03:12:13.077Z,59.40
2018-09-28T03:14:43.459Z,59.40
2018-09-28T03:17:13.822Z,59.40
2018-09-28T03:19:44.077Z,59.40
2018-09-28T03:22:14.439Z,59.40
2018-09-28T03:24:44.763Z,59.40
2018-09-28T03:27:15.095Z,59.40
2018-09-28T03:29:45.425Z,59.60
2018-09-28T03:32:15.774Z,59.60
2018-09-28T03:34:46.078Z,59.80
2018-09-28T03:37:17.655Z,59.90
2018-09-28T03:39:48.172Z,60.10
2018-09-28T03:42:18.648Z,60.00
2018-09-28T03:44:48.961Z,59.70
2018-09-28T03:47:19.389Z,59.60
2018-09-28T03:49:49.753Z,59.60
2018-09-28T03:52:20.098Z,59.40
2018-09-28T03:54:50.370Z,59.30
2018-09-28T03:57:20.724Z,59.20
2018-09-28T03:59:51.047Z,59.10
2018-09-28T04:02:21.654Z,59.10
2018-09-28T04:04:51.963Z,59.10
2018-09-28T04:07:22.305Z,59.10
2018-09-28T04:09:52.630Z,59.00
2018-09-28T04:12:22.996Z,59.10
2018-09-28T04:14:53.518Z,59.00
2018-09-28T04:17:23.887Z,58.90
2018-09-28T04:19:54.226Z,58.90
2018-09-28T04:22:24.566Z,58.90
2018-09-28T04:24:54.850Z,58.90
2018-09-28T04:27:25.194Z,58.90
2018-09-28T04:29:55.584Z,58.80
2018-09-28T04:32:25.997Z,58.80
2018-09-28T04:34:56.264Z,58.70
2018-09-28T04:37:26.625Z,58.60
2018-09-28T04:39:56.946Z,58.90
2018-09-28T04:42:27.329Z,59.10
2018-09-28T04:44:57.653Z,59.20
2018-09-28T04:47:27.984Z,59.40
2018-09-28T04:49:58.394Z,59.50
2018-09-28T04:52:28.761Z,59.90
2018-09-28T04:54:59.130Z,59.90
2018-09-28T04:57:29.486Z,60.00
2018-09-28T04:59:59.761Z,59.80
2018-09-28T05:02:30.208Z,59.90
2018-09-28T05:05:00.573Z,59.70
2018-09-28T05:07:30.908Z,59.80
2018-09-28T05:10:01.243Z,59.50
2018-09-28T05:12:31.586Z,59.70
2018-09-28T05:15:02.071Z,59.60
2018-09-28T05:17:32.386Z,59.70
2018-09-28T05:20:02.823Z,59.70
2018-09-28T05:22:33.233Z,59.70
2018-09-28T05:25:05.814Z,59.40
2018-09-28T05:27:36.837Z,59.50
2018-09-28T05:30:07.440Z,59.50
2018-09-28T05:32:37.940Z,59.50
2018-09-28T05:35:08.214Z,59.80
2018-09-28T05:37:38.566Z,60.30
2018-09-28T05:40:08.970Z,60.30
2018-09-28T05:42:39.819Z,60.30
2018-09-28T05:45:10.263Z,60.30
2018-09-28T05:47:40.642Z,60.20
2018-09-28T05:50:11.190Z,60.10
2018-09-28T05:52:41.666Z,60.00
2018-09-28T05:55:12.066Z,59.90
2018-09-28T05:57:42.518Z,59.80
2018-09-28T06:00:18.128Z,59.80
2018-09-28T06:02:53.563Z,59.70
2018-09-28T06:05:29.018Z,59.60
2018-09-28T06:07:59.614Z,59.60
2018-09-28T06:10:30.812Z,59.30
2018-09-28T06:13:01.134Z,59.20
2018-09-28T06:15:31.611Z,59.00
2018-09-28T06:18:02.341Z,58.80
2018-09-28T06:20:33.545Z,58.90
2018-09-28T06:23:04.211Z,58.70
2018-09-28T06:25:34.585Z,58.70
2018-09-28T06:28:04.953Z,58.40
2018-09-28T06:30:36.616Z,57.60
2018-09-28T06:33:08.545Z,57.40
2018-09-28T06:35:39.021Z,57.40
2018-09-28T06:38:09.313Z,56.90
2018-09-28T06:40:39.654Z,56.20
2018-09-28T06:43:10.316Z,55.70
2018-09-28T06:45:40.766Z,55.60
2018-09-28T06:48:11.509Z,55.50
2018-09-28T06:50:41.862Z,54.80
2018-09-28T06:53:13.167Z,54.60
2018-09-28T06:55:43.890Z,54.70
2018-09-28T06:58:14.317Z,54.50
2018-09-28T07:00:45.355Z,54.30
2018-09-28T07:03:16.006Z,54.00
2018-09-28T07:05:46.495Z,53.00
2018-09-28T07:08:16.942Z,52.50
2018-09-28T07:10:47.378Z,52.20
2018-09-28T07:13:17.858Z,52.30
2018-09-28T07:15:48.183Z,51.70
2018-09-28T07:18:19.042Z,51.40
2018-09-28T07:20:49.430Z,51.40
2018-09-28T07:23:19.740Z,51.10
2018-09-28T07:25:50.122Z,51.00
2018-09-28T07:28:20.686Z,51.00
2018-09-28T07:30:51.053Z,50.20
2018-09-28T07:33:23.975Z,49.70
2018-09-28T07:35:54.772Z,49.40
2018-09-28T07:38:25.151Z,48.50
2018-09-28T07:40:56.646Z,49.20
2018-09-28T07:43:27.018Z,48.20
2018-09-28T07:45:57.326Z,47.60
2018-09-28T07:48:28.254Z,47.20
2018-09-28T07:51:01.749Z,47.00
2018-09-28T07:53:35.361Z,46.20
2018-09-28T07:56:05.669Z,46.00
2018-09-28T07:58:36.302Z,45.40
2018-09-28T08:01:06.690Z,45.10
2018-09-28T08:03:37.405Z,44.90
2018-09-28T08:06:07.707Z,44.20
2018-09-28T08:08:38.085Z,43.10
2018-09-28T08:11:08.700Z,43.20
2018-09-28T08:13:39.030Z,42.10
2018-09-28T08:16:09.356Z,40.80
2018-09-28T08:18:40.313Z,40.60
2018-09-28T08:21:10.617Z,40.30
2018-09-28T08:23:41.409Z,39.30
2018-09-28T08:26:11.691Z,38.20
2018-09-28T08:28:42.092Z,37.80
2018-09-28T08:31:12.477Z,37.00
2018-09-28T08:34:51.045Z,36.50
2018-09-28T08:37:22.296Z,35.50
2018-09-28T08:39:52.970Z,35.40
2018-09-28T08:42:23.293Z,33.60
2018-09-28T08:44:53.827Z,32.40
2018-09-28T08:47:24.221Z,31.40
2018-09-28T08:49:54.813Z,31.30
2018-09-28T08:52:25.213Z,30.80
2018-09-28T08:54:55.610Z,29.80
2018-09-28T08:57:26.084Z,29.40
2018-09-28T08:59:56.682Z,28.10
2018-09-28T09:02:27.083Z,28.50
2018-09-28T09:04:57.375Z,28.40
2018-09-28T09:07:27.740Z,27.50
2018-09-28T09:09:58.008Z,26.50
2018-09-28T09:12:28.327Z,26.10
2018-09-28T09:14:58.885Z,25.90
2018-09-28T09:17:29.261Z,25.20
2018-09-28T09:19:59.562Z,23.60
2018-09-28T09:22:30.056Z,24.10
2018-09-28T09:25:00.558Z,23.60
2018-09-28T09:27:30.995Z,23.60
2018-09-28T09:30:01.681Z,23.60
2018-09-28T09:32:32.099Z,23.30
2018-09-28T09:35:02.463Z,21.90
2018-09-28T09:37:33.109Z,21.40
2018-09-28T09:40:03.414Z,20.80
2018-09-28T09:42:34.439Z,21.40
2018-09-28T09:45:08.788Z,21.10
2018-09-28T09:47:40.030Z,20.00
2018-09-28T09:50:10.383Z,19.60
2018-09-28T09:52:40.820Z,18.40
2018-09-28T09:55:11.209Z,18.30
2018-09-28T09:57:41.654Z,18.30
2018-09-28T10:00:16.281Z,18.40
2018-09-28T10:02:51.748Z,18.90
2018-09-28T10:05:22.149Z,17.00
2018-09-28T10:07:55.705Z,17.60
2018-09-28T10:10:26.065Z,15.50
2018-09-28T10:12:56.804Z,16.50
2018-09-28T10:15:27.247Z,16.10
2018-09-28T10:17:57.726Z,16.80
2018-09-28T10:20:28.127Z,17.30
2018-09-28T10:22:58.674Z,16.80
2018-09-28T10:25:29.029Z,16.50
2018-09-28T10:28:00.260Z,16.60
2018-09-28T10:30:31.032Z,15.50
2018-09-28T10:33:01.415Z,15.80
2018-09-28T10:35:32.202Z,16.00
2018-09-28T10:38:02.591Z,15.40
2018-09-28T10:40:33.484Z,15.90
2018-09-28T10:43:03.874Z,16.30
2018-09-28T10:45:34.278Z,17.00
2018-09-28T10:48:04.841Z,17.40
2018-09-28T10:50:35.218Z,16.70
2018-09-28T10:53:08.007Z,16.20
2018-09-28T10:55:40.089Z,16.80
2018-09-28T10:58:14.899Z,16.60
2018-09-28T11:00:45.487Z,16.00
2018-09-28T11:03:16.101Z,15.90
2018-09-28T11:05:46.491Z,16.30
2018-09-28T11:08:17.857Z,15.70
2018-09-28T11:10:49.505Z,16.20
2018-09-28T11:13:20.083Z,16.30
2018-09-28T11:15:51.912Z,16.80
2018-09-28T11:18:22.350Z,16.00
2018-09-28T11:20:54.892Z,16.60
2018-09-28T11:23:26.029Z,15.70
2018-09-28T11:25:57.503Z,16.10
2018-09-28T11:28:29.147Z,15.90
2018-09-28T11:31:00.017Z,14.80
2018-09-28T11:33:30.716Z,14.60
2018-09-28T11:36:03.036Z,14.90
2018-09-28T11:38:33.437Z,14.40
2018-09-28T11:41:08.665Z,14.20
2018-09-28T11:43:42.793Z,13.70
2018-09-28T11:46:14.596Z,13.40
2018-09-28T11:48:51.225Z,14.10
2018-09-28T11:51:23.970Z,14.60
2018-09-28T11:53:54.447Z,14.20
2018-09-28T11:56:24.819Z,14.80
2018-09-28T11:58:55.154Z,14.70
2018-09-28T12:01:25.496Z,14.50
2018-09-28T12:03:55.811Z,14.40
2018-09-28T12:06:26.265Z,14.30
2018-09-28T12:08:56.544Z,13.90
2018-09-28T12:11:26.926Z,13.60
2018-09-28T12:13:57.239Z,14.10
2018-09-28T12:16:27.713Z,14.10
2018-09-28T12:18:58.029Z,13.90
2018-09-28T12:21:28.515Z,14.10
2018-09-28T12:23:58.806Z,14.00
2018-09-28T12:26:29.989Z,14.20
2018-09-28T12:29:01.446Z,13.70
2018-09-28T12:31:31.917Z,13.50
2018-09-28T12:34:02.395Z,13.50
2018-09-28T12:36:32.967Z,13.10
2018-09-28T12:39:03.571Z,12.50
2018-09-28T12:41:34.015Z,13.00
2018-09-28T12:44:04.494Z,13.60
2018-09-28T12:46:34.839Z,13.80
2018-09-28T12:49:05.127Z,13.90
2018-09-28T12:51:35.526Z,13.90
2018-09-28T12:54:05.871Z,13.50
2018-09-28T12:56:36.329Z,13.40
2018-09-28T12:59:06.877Z,13.20
2018-09-28T13:01:37.625Z,14.20
2018-09-28T13:04:13.599Z,15.00
2018-09-28T13:06:46.203Z,14.80
2018-09-28T13:09:16.584Z,13.80
2018-09-28T13:11:47.415Z,13.90
2018-09-28T13:14:17.765Z,13.60
2018-09-28T13:16:48.241Z,13.50
2018-09-28T13:19:18.733Z,13.80
2018-09-28T13:21:50.978Z,13.50
2018-09-28T13:24:21.592Z,12.90
2018-09-28T13:26:52.120Z,12.80
2018-09-28T13:29:22.473Z,12.80
2018-09-28T13:31:52.838Z,12.80
2018-09-28T13:34:23.333Z,12.40
2018-09-28T13:40:01.388Z,12.50
2018-09-28T13:42:31.915Z,12.80
2018-09-28T13:45:02.505Z,12.60
2018-09-28T13:47:33.103Z,12.90
2018-09-28T13:50:06.348Z,12.20
2018-09-28T13:56:17.907Z,11.80
2018-09-28T13:58:48.375Z,12.10
2018-09-28T14:01:49.196Z,12.90
2018-09-28T14:04:58.305Z,12.80
2018-09-28T14:08:26.370Z,13.30
2018-09-28T14:11:14.170Z,13.10
2018-09-28T14:14:10.183Z,13.00
2018-09-28T14:16:45.852Z,12.60
2018-09-28T14:19:17.357Z,12.60
2018-09-28T14:21:53.955Z,12.00
2018-09-28T14:24:39.992Z,12.50
2018-09-28T14:27:13.466Z,12.30
2018-09-28T14:29:57.400Z,12.40
2018-09-28T14:33:12.111Z,12.20
2018-09-28T14:35:50.096Z,11.90
2018-09-28T14:38:43.618Z,13.00
2018-09-28T14:41:19.181Z,14.40
2018-09-28T14:44:05.503Z,14.70
2018-09-28T14:46:43.649Z,13.90
2018-09-28T14:49:39.131Z,14.20
2018-09-28T14:52:15.653Z,15.10
2018-09-28T14:54:47.250Z,16.70
2018-09-28T14:57:19.046Z,17.60
2018-09-28T15:00:04.818Z,18.10
2018-09-28T15:02:46.455Z,18.70
2018-09-28T15:05:22.628Z,19.40
2018-09-28T15:08:11.952Z,20.00
2018-09-28T15:10:43.986Z,20.40
2018-09-28T15:13:24.960Z,19.90
2018-09-28T15:16:16.391Z,18.60
2018-09-28T15:18:51.480Z,18.00
2018-09-28T15:21:26.020Z,16.90
2018-09-28T15:24:03.834Z,16.50
2018-09-28T15:26:41.509Z,16.80
2018-09-28T15:29:33.670Z,16.40
2018-09-28T15:32:08.204Z,16.60
2018-09-28T15:34:38.750Z,17.20
2018-09-28T15:37:09.059Z,17.10
2018-09-28T15:39:39.402Z,17.50
2018-09-28T15:42:09.690Z,18.00
2018-09-28T15:44:40.486Z,18.20
2018-09-28T15:47:14.896Z,18.70
2018-09-28T15:49:45.575Z,18.80
2018-09-28T15:52:16.049Z,19.70
2018-09-28T15:54:46.481Z,20.80
2018-09-28T15:57:16.757Z,22.40
2018-09-28T15:59:47.089Z,23.10
2018-09-28T16:02:17.462Z,24.50
2018-09-28T16:04:47.979Z,24.10
2018-09-28T16:07:18.430Z,24.80
2018-09-28T16:09:48.830Z,25.40
2018-09-28T16:12:19.152Z,26.00
2018-09-28T16:14:49.473Z,26.30
2018-09-28T16:17:19.793Z,26.50
2018-09-28T16:19:50.231Z,27.00
2018-09-28T16:22:20.546Z,27.40
2018-09-28T16:24:51.019Z,28.00
2018-09-28T16:27:21.419Z,28.10
2018-09-28T16:29:51.834Z,28.60
2018-09-28T16:32:22.154Z,28.90
2018-09-28T16:34:52.663Z,29.30
2018-09-28T16:37:22.990Z,29.60
2018-09-28T16:39:53.362Z,30.20
2018-09-28T16:42:23.908Z,30.10
2018-09-28T16:44:54.359Z,30.50
2018-09-28T16:47:24.780Z,30.30
2018-09-28T16:49:56.508Z,30.70
2018-09-28T16:52:27.219Z,31.20
2018-09-28T16:54:57.568Z,31.60
2018-09-28T16:57:28.180Z,31.40
2018-09-28T16:59:59.017Z,32.30
2018-09-28T17:02:41.693Z,33.50
2018-09-28T17:05:16.277Z,34.50
2018-09-28T17:07:59.342Z,35.70
2018-09-28T17:10:32.299Z,36.30
2018-09-28T17:13:06.774Z,36.50
2018-09-28T17:15:38.896Z,37.30
2018-09-28T17:18:16.328Z,38.10
2018-09-28T17:20:48.550Z,38.10
2018-09-28T17:23:20.473Z,38.30
2018-09-28T17:25:57.067Z,38.50
2018-09-28T17:28:34.056Z,39.30
2018-09-28T17:31:07.795Z,39.90
2018-09-28T17:33:38.151Z,40.00
2018-09-28T17:36:09.012Z,40.20
2018-09-28T17:38:44.587Z,40.30
2018-09-28T17:41:53.283Z,40.60
2018-09-28T17:44:27.204Z,41.30
2018-09-28T17:47:11.701Z,42.00
2018-09-28T17:49:51.076Z,42.10
2018-09-28T17:52:39.685Z,42.80
2018-09-28T17:55:19.458Z,42.70
2018-09-28T17:58:11.336Z,42.70
2018-09-28T18:01:01.469Z,42.60
2018-09-28T18:03:43.764Z,43.10
2018-09-28T18:06:26.627Z,43.20
2018-09-28T18:09:02.749Z,42.80
2018-09-28T18:11:41.337Z,42.60
2018-09-28T18:14:14.497Z,43.10
2018-09-28T18:16:46.431Z,42.60
2018-09-28T18:19:18.999Z,41.90
2018-09-28T18:22:06.391Z,41.70
2018-09-28T18:24:40.733Z,41.20
2018-09-28T18:27:18.437Z,41.00
2018-09-28T18:30:12.569Z,41.00
2018-09-28T18:32:47.815Z,41.20
2018-09-28T18:35:26.919Z,41.30
2018-09-28T18:41:18.607Z,41.30
2018-09-28T18:44:29.712Z,41.50
2018-09-28T18:47:07.200Z,41.50
2018-09-28T18:49:59.386Z,41.30
2018-09-28T18:52:32.647Z,41.50
2018-09-28T18:55:05.911Z,41.40
2018-09-28T18:57:45.346Z,41.30
2018-09-28T19:00:17.318Z,41.40
2018-09-28T19:02:56.460Z,41.70
2018-09-28T19:06:46.261Z,41.90
2018-09-28T19:12:58.593Z,42.20
2018-09-28T19:19:43.438Z,42.50
2018-09-28T19:22:15.359Z,43.40
2018-09-28T19:24:47.246Z,44.30
2018-09-28T19:27:18.891Z,45.10
2018-09-28T19:30:57.794Z,45.60
2018-09-28T19:33:31.653Z,46.20
2018-09-28T19:36:04.147Z,47.00
2018-09-28T19:38:37.842Z,46.80
2018-09-28T19:41:20.863Z,46.60
2018-09-28T19:43:58.446Z,46.30
2018-09-28T19:46:37.809Z,46.30
2018-09-28T19:49:18.328Z,46.10
2018-09-28T19:52:02.134Z,45.80
2018-09-28T19:54:45.321Z,45.50
2018-09-28T19:57:24.577Z,45.40
2018-09-28T20:00:06.729Z,45.40
2018-09-28T20:02:56.096Z,46.30
2018-09-28T20:05:50.280Z,47.20
2018-09-28T20:08:36.141Z,48.10
2018-09-28T20:12:10.294Z,48.30
2018-09-28T20:15:13.893Z,48.80
2018-09-28T20:17:57.283Z,49.10
2018-09-28T20:20:42.125Z,49.20
2018-09-28T20:23:22.669Z,49.20
2018-09-28T20:26:02.794Z,49.20
2018-09-28T20:28:34.764Z,48.80
2018-09-28T20:31:17.398Z,48.50
2018-09-28T20:33:58.180Z,48.20
2018-09-28T20:36:36.197Z,47.80
2018-09-28T20:39:14.707Z,47.90
2018-09-28T20:41:48.145Z,48.00
2018-09-28T20:44:32.447Z,48.50
2018-09-28T20:47:17.428Z,48.50
2018-09-28T20:49:58.654Z,48.80
2018-09-28T20:52:41.350Z,48.80
2018-09-28T20:55:29.834Z,48.70
2018-09-28T20:58:08.795Z,48.70
2018-09-28T21:00:42.516Z,49.20
2018-09-28T21:03:21.982Z,49.70
2018-09-28T21:06:06.290Z,49.80
2018-09-28T21:09:10.424Z,49.70
2018-09-28T21:12:02.705Z,50.80
2018-09-28T21:14:38.011Z,50.60
2018-09-28T21:20:36.188Z,52.20
2018-09-28T21:23:09.279Z,52.90
2018-09-28T21:25:41.503Z,53.80
2018-09-28T21:28:12.866Z,55.80
2018-09-28T21:30:44.382Z,57.30
2018-09-28T21:33:18.072Z,57.70
2018-09-28T21:35:49.092Z,58.10
2018-09-28T21:38:21.451Z,59.30
2018-09-28T21:40:55.234Z,59.70
2018-09-28T21:43:34.478Z,59.50
2018-09-28T21:46:05.876Z,60.20
2018-09-28T21:48:37.373Z,59.80
2018-09-28T21:51:08.324Z,60.80
2018-09-28T21:53:41.660Z,61.40
2018-09-28T21:57:25.886Z,61.60
2018-09-28T21:59:57.276Z,61.30
2018-09-28T22:02:27.722Z,62.20
2018-09-28T22:05:02.175Z,61.90
2018-09-28T22:07:32.582Z,61.70
2018-09-28T22:10:05.261Z,59.40
2018-09-28T22:12:42.917Z,59.40
2018-09-28T22:15:14.945Z,59.60
2018-09-28T22:17:46.644Z,59.30
2018-09-28T22:20:23.767Z,60.20
2018-09-28T22:23:01.289Z,60.70
2018-09-28T22:25:33.784Z,60.60
2018-09-28T22:28:05.268Z,60.40
2018-09-28T22:30:36.154Z,59.70
2018-09-28T22:33:07.989Z,59.40
2018-09-28T22:35:38.452Z,59.70
2018-09-28T22:38:09.144Z,60.50
2018-09-28T22:40:39.574Z,61.00
2018-09-28T22:43:09.962Z,58.30
2018-09-28T22:45:42.657Z,59.20
2018-09-28T22:48:15.387Z,60.10
2018-09-28T22:50:49.017Z,60.40
2018-09-28T22:53:20.466Z,60.60
2018-09-28T22:55:53.053Z,60.80
2018-09-28T22:58:24.037Z,60.50
2018-09-28T23:00:57.110Z,60.10
2018-09-28T23:03:27.981Z,59.80
2018-09-28T23:06:08.385Z,60.30
2018-09-28T23:08:41.781Z,60.40
2018-09-28T23:11:23.352Z,60.40
2018-09-28T23:13:58.361Z,59.90
2018-09-28T23:16:29.847Z,60.00
2018-09-28T23:19:07.083Z,60.50
2018-09-28T23:21:38.528Z,61.00
2018-09-28T23:24:09.510Z,61.10
2018-09-28T23:26:40.373Z,61.30
2018-09-28T23:29:11.449Z,60.20
2018-09-28T23:31:43.251Z,60.00
2018-09-28T23:34:15.092Z,59.40
2018-09-28T23:36:47.426Z,58.90
2018-09-28T23:39:18.179Z,58.30
2018-09-28T23:41:48.810Z,55.20
2018-09-28T23:44:20.151Z,55.60
2018-09-28T23:46:50.744Z,56.90
2018-09-28T23:49:22.659Z,58.30
